Wetterdaten: Freitag, 14.05.2004
Datum Zeit Temp. A Sch. Temp. A Son. Feuchte A. Luftdruck Regen Wind Richtung Richtung Sonnenschein Helligkeit Taupunkt Windchill
14.05.2004 00:00 7,9 C 9,0 C 84 % 1020 hPa 0,0 l/m 0,9 m/s (0 Bft) W 260 0,00 min 0 lux 5,4 C 7,9 C
14.05.2004 00:05 7,9 C 8,9 C 84 % 1020 hPa 0,0 l/m 0,9 m/s (0 Bft) W22.5 270 0,00 min 0 lux 5,4 C 7,9 C
14.05.2004 00:10 7,4 C 8,7 C 84 % 1020 hPa 0,0 l/m 0,7 m/s (0 Bft) NW22.5 315 0,00 min 0 lux 4,9 C 7,4 C
14.05.2004 00:15 7,1 C 8,5 C 84 % 1020 hPa 0,0 l/m 0,0 m/s (0 Bft) NW 325 0,00 min 0 lux 4,6 C 7,1 C
14.05.2004 00:20 6,9 C 8,3 C 85 % 1020 hPa 0,0 l/m 0,0 m/s (0 Bft) N-NW22.5 330 0,00 min 0 lux 4,6 C 6,9 C
14.05.2004 00:25 6,9 C 8,2 C 86 % 1020 hPa 0,0 l/m 0,0 m/s (0 Bft) N 355 0,00 min 0 lux 4,7 C 6,9 C
14.05.2004 00:30 6,7 C 8,0 C 86 % 1020 hPa 0,0 l/m 0,0 m/s (0 Bft) N 355 0,00 min 0 lux 4,5 C 6,7 C
14.05.2004 00:35 6,5 C 7,8 C 86 % 1020 hPa 0,0 l/m 0,0 m/s (0 Bft) N 355 0,00 min 0 lux 4,3 C 6,5 C
14.05.2004 00:40 6,4 C 7,7 C 86 % 1020 hPa 0,0 l/m 0,0 m/s (0 Bft) W-NW 300 0,00 min 0 lux 4,2 C 6,4 C
14.05.2004 00:45 6,5 C 7,6 C 87 % 1020 hPa 0,0 l/m 0,1 m/s (0 Bft) W-NW 290 0,00 min 0 lux 4,5 C 6,5 C
14.05.2004 00:50 6,4 C 7,5 C 87 % 1020 hPa 0,0 l/m 0,2 m/s (0 Bft) NW22.5 320 0,00 min 0 lux 4,4 C 6,4 C
14.05.2004 00:55 6,3 C 7,4 C 87 % 1020 hPa 0,0 l/m 0,0 m/s (0 Bft) N-NW 340 0,00 min 0 lux 4,3 C 6,3 C
14.05.2004 01:00 6,2 C 7,3 C 87 % 1020 hPa 0,0 l/m 0,0 m/s (0 Bft) N-NW 340 0,00 min 0 lux 4,2 C 6,2 C
14.05.2004 01:05 6,0 C 7,2 C 87 % 1020 hPa 0,0 l/m 0,0 m/s (0 Bft) NW 325 0,00 min 0 lux 4,0 C 6,0 C
14.05.2004 01:10 5,9 C 7,0 C 88 % 1020 hPa 0,0 l/m 0,0 m/s (0 Bft) W-NW 290 0,00 min 0 lux 4,1 C 5,9 C
14.05.2004 01:15 5,7 C 6,9 C 88 % 1020 hPa 0,0 l/m 0,0 m/s (0 Bft) W-NW 290 0,00 min 0 lux 3,9 C 5,7 C
14.05.2004 01:20 5,7 C 6,8 C 88 % 1020 hPa 0,0 l/m 0,0 m/s (0 Bft) W-NW 290 0,00 min 0 lux 3,9 C 5,7 C
14.05.2004 01:25 5,6 C 6,7 C 88 % 1020 hPa 0,0 l/m 0,0 m/s (0 Bft) W-NW 290 0,00 min 0 lux 3,8 C 5,6 C
14.05.2004 01:30 5,5 C 6,7 C 88 % 1020 hPa 0,0 l/m 0,0 m/s (0 Bft) W-NW 290 0,00 min 0 lux 3,7 C 5,5 C
14.05.2004 01:35 5,3 C 6,6 C 88 % 1020 hPa 0,0 l/m 0,0 m/s (0 Bft) W-NW 290 0,00 min 0 lux 3,5 C 5,3 C
14.05.2004 01:40 5,3 C 6,5 C 88 % 1020 hPa 0,0 l/m 0,0 m/s (0 Bft) W-NW 290 0,00 min 0 lux 3,5 C 5,3 C
14.05.2004 01:45 5,2 C 6,3 C 88 % 1020 hPa 0,0 l/m 0,0 m/s (0 Bft) W-NW 290 0,00 min 0 lux 3,4 C 5,2 C
14.05.2004 01:50 5,1 C 6,3 C 88 % 1020 hPa 0,0 l/m 0,0 m/s (0 Bft) W-NW 290 0,00 min 0 lux 3,3 C 5,1 C
14.05.2004 01:55 4,9 C 6,1 C 89 % 1020 hPa 0,0 l/m 0,0 m/s (0 Bft) W-NW 290 0,00 min 0 lux 3,2 C 4,9 C
14.05.2004 02:00 4,8 C 6,0 C 89 % 1020 hPa 0,0 l/m 0,0 m/s (0 Bft) W-NW 290 0,00 min 0 lux 3,1 C 4,8 C
14.05.2004 02:05 5,1 C 5,9 C 89 % 1020 hPa 0,0 l/m 0,0 m/s (0 Bft) W-NW 290 0,00 min 0 lux 3,4 C 5,1 C
14.05.2004 02:10 4,9 C 5,8 C 90 % 1020 hPa 0,0 l/m 0,0 m/s (0 Bft) W-NW 290 0,00 min 0 lux 3,4 C 4,9 C
14.05.2004 02:15 4,7 C 5,8 C 90 % 1020 hPa 0,0 l/m 0,0 m/s (0 Bft) W-NW 290 0,00 min 0 lux 3,2 C 4,7 C
14.05.2004 02:20 4,8 C 5,7 C 90 % 1020 hPa 0,0 l/m 1,1 m/s (0 Bft) W-NW 295 0,00 min 0 lux 3,3 C 4,8 C
14.05.2004 02:25 4,8 C 5,7 C 90 % 1020 hPa 0,0 l/m 1,1 m/s (0 Bft) NW22.5 310 0,00 min 0 lux 3,3 C 4,8 C
14.05.2004 02:30 4,6 C 5,6 C 90 % 1020 hPa 0,0 l/m 0,8 m/s (0 Bft) W-NW22.5 295 0,00 min 0 lux 3,1 C 4,6 C
14.05.2004 02:35 4,7 C 5,6 C 90 % 1020 hPa 0,0 l/m 0,0 m/s (0 Bft) W-NW 285 0,00 min 0 lux 3,2 C 4,7 C
14.05.2004 02:40 4,3 C 5,5 C 90 % 1020 hPa 0,0 l/m 0,0 m/s (0 Bft) W-NW 285 0,00 min 0 lux 2,8 C 4,3 C
14.05.2004 02:45 4,3 C 5,3 C 90 % 1020 hPa 0,0 l/m 0,0 m/s (0 Bft) W-NW 285 0,00 min 0 lux 2,8 C 4,3 C
14.05.2004 02:50 4,2 C 5,3 C 90 % 1020 hPa 0,0 l/m 0,0 m/s (0 Bft) W-NW 285 0,00 min 0 lux 2,7 C 4,2 C
14.05.2004 02:55 4,1 C 5,3 C 90 % 1020 hPa 0,0 l/m 0,0 m/s (0 Bft) W-NW 285 0,00 min 0 lux 2,6 C 4,1 C
14.05.2004 03:00 4,1 C 5,2 C 90 % 1020 hPa 0,0 l/m 0,0 m/s (0 Bft) W-NW 285 0,00 min 0 lux 2,6 C 4,1 C
14.05.2004 03:05 4,1 C 5,2 C 90 % 1020 hPa 0,0 l/m 0,0 m/s (0 Bft) W-NW 285 0,00 min 0 lux 2,6 C 4,1 C
14.05.2004 03:10 4,1 C 5,0 C 90 % 1020 hPa 0,0 l/m 0,0 m/s (0 Bft) W-NW 285 0,00 min 0 lux 2,6 C 4,1 C
14.05.2004 03:15 3,9 C 5,0 C 91 % 1020 hPa 0,0 l/m 0,0 m/s (0 Bft) W-NW 285 0,00 min 0 lux 2,6 C 3,9 C
14.05.2004 03:20 3,8 C 5,0 C 91 % 1020 hPa 0,0 l/m 0,0 m/s (0 Bft) W-NW 285 0,00 min 0 lux 2,5 C 3,8 C
14.05.2004 03:25 3,8 C 4,8 C 91 % 1020 hPa 0,0 l/m 0,0 m/s (0 Bft) W-NW 285 0,00 min 0 lux 2,5 C 3,8 C
14.05.2004 03:30 3,9 C 4,8 C 91 % 1020 hPa 0,0 l/m 0,0 m/s (0 Bft) W-NW 285 0,00 min 0 lux 2,6 C 3,9 C
14.05.2004 03:35 3,9 C 4,7 C 91 % 1020 hPa 0,0 l/m 0,0 m/s (0 Bft) W-NW 285 0,00 min 0 lux 2,6 C 3,9 C
14.05.2004 03:40 3,8 C 4,7 C 91 % 1020 hPa 0,0 l/m 0,0 m/s (0 Bft) W-NW 285 0,00 min 0 lux 2,5 C 3,8 C
14.05.2004 03:45 3,7 C 4,6 C 91 % 1020 hPa 0,0 l/m 0,0 m/s (0 Bft) W-NW 285 0,00 min 0 lux 2,4 C 3,7 C
14.05.2004 03:50 3,7 C 4,6 C 91 % 1020 hPa 0,0 l/m 0,0 m/s (0 Bft) W-NW 285 0,00 min 0 lux 2,4 C 3,7 C
14.05.2004 03:55 3,6 C 4,5 C 91 % 1020 hPa 0,0 l/m 1,3 m/s (1 Bft) W-NW 285 0,00 min 0 lux 2,3 C 3,6 C
14.05.2004 04:00 3,7 C 4,5 C 91 % 1020 hPa 0,0 l/m 0,0 m/s (0 Bft) W 265 0,00 min 0 lux 2,4 C 3,7 C
14.05.2004 04:05 3,8 C 4,5 C 91 % 1020 hPa 0,0 l/m 0,0 m/s (0 Bft) W 270 0,00 min 0 lux 2,5 C 3,8 C
14.05.2004 04:10 3,7 C 4,5 C 92 % 1020 hPa 0,0 l/m 0,0 m/s (0 Bft) W 275 0,00 min 0 lux 2,5 C 3,7 C
14.05.2004 04:15 3,8 C 4,5 C 92 % 1020 hPa 0,0 l/m 0,0 m/s (0 Bft) W 275 0,00 min 0 lux 2,6 C 3,8 C
14.05.2004 04:20 3,6 C 4,5 C 92 % 1020 hPa 0,0 l/m 0,0 m/s (0 Bft) W 275 0,00 min 0 lux 2,4 C 3,6 C
14.05.2004 04:25 3,6 C 4,4 C 91 % 1020 hPa 0,0 l/m 0,0 m/s (0 Bft) W 275 0,00 min 0 lux 2,3 C 3,6 C
14.05.2004 04:30 3,3 C 4,4 C 91 % 1020 hPa 0,0 l/m 0,0 m/s (0 Bft) W 275 0,00 min 0 lux 2,0 C 3,3 C
14.05.2004 04:35 3,4 C 4,3 C 91 % 1020 hPa 0,0 l/m 0,0 m/s (0 Bft) W 275 0,00 min 0 lux 2,1 C 3,4 C
14.05.2004 04:40 3,4 C 4,3 C 91 % 1020 hPa 0,0 l/m 0,0 m/s (0 Bft) W 275 0,00 min 0 lux 2,1 C 3,4 C
14.05.2004 04:45 3,4 C 4,3 C 91 % 1020 hPa 0,0 l/m 0,0 m/s (0 Bft) W 275 0,00 min 0 lux 2,1 C 3,4 C
14.05.2004 04:50 3,4 C 4,2 C 91 % 1020 hPa 0,0 l/m 0,0 m/s (0 Bft) W 275 0,00 min 0 lux 2,1 C 3,4 C
14.05.2004 04:55 3,2 C 4,2 C 91 % 1020 hPa 0,0 l/m 0,0 m/s (0 Bft) W 275 0,00 min 0 lux 1,9 C 3,2 C
14.05.2004 05:00 3,2 C 4,1 C 91 % 1021 hPa 0,0 l/m 0,0 m/s (0 Bft) W 275 0,00 min 0 lux 1,9 C 3,2 C
14.05.2004 05:05 3,2 C 4,0 C 91 % 1021 hPa 0,0 l/m 0,0 m/s (0 Bft) W 275 0,00 min 0 lux 1,9 C 3,2 C
14.05.2004 05:10 2,9 C 4,0 C 92 % 1020 hPa 0,0 l/m 0,0 m/s (0 Bft) W 275 0,00 min 0 lux 1,7 C 2,9 C
14.05.2004 05:15 2,7 C 3,9 C 92 % 1021 hPa 0,0 l/m 0,0 m/s (0 Bft) W 275 0,00 min 0 lux 1,5 C 2,7 C
14.05.2004 05:20 2,6 C 3,9 C 92 % 1021 hPa 0,0 l/m 0,0 m/s (0 Bft) W 275 0,00 min 50 lux 1,4 C 2,6 C
14.05.2004 05:25 3,1 C 3,9 C 91 % 1021 hPa 0,0 l/m 0,0 m/s (0 Bft) W 275 0,00 min 67 lux 1,8 C 3,1 C
14.05.2004 05:30 3,0 C 3,9 C 92 % 1021 hPa 0,0 l/m 0,0 m/s (0 Bft) W 275 0,00 min 116 lux 1,8 C 3,0 C
14.05.2004 05:35 2,9 C 3,9 C 92 % 1021 hPa 0,0 l/m 0,0 m/s (0 Bft) W 275 0,00 min 182 lux 1,7 C 2,9 C
14.05.2004 05:40 3,0 C 3,9 C 92 % 1021 hPa 0,0 l/m 0,0 m/s (0 Bft) W 275 0,00 min 248 lux 1,8 C 3,0 C
14.05.2004 05:45 3,0 C 3,9 C 92 % 1021 hPa 0,0 l/m 0,0 m/s (0 Bft) W 275 0,00 min 397 lux 1,8 C 3,0 C
14.05.2004 05:50 3,2 C 3,9 C 92 % 1021 hPa 0,0 l/m 0,0 m/s (0 Bft) W 275 0,00 min 592 lux 2,0 C 3,2 C
14.05.2004 05:55 3,0 C 3,9 C 92 % 1021 hPa 0,0 l/m 0,0 m/s (0 Bft) W 275 0,00 min 863 lux 1,8 C 3,0 C
14.05.2004 06:00 3,1 C 3,9 C 92 % 1021 hPa 0,0 l/m 0,0 m/s (0 Bft) W 275 0,00 min 1,17 klux 1,9 C 3,1 C
14.05.2004 06:05 3,1 C 3,9 C 91 % 1021 hPa 0,0 l/m 0,0 m/s (0 Bft) W 275 0,00 min 1,48 klux 1,8 C 3,1 C
14.05.2004 06:10 3,0 C 3,9 C 91 % 1021 hPa 0,0 l/m 0,0 m/s (0 Bft) W 275 0,00 min 1,82 klux 1,7 C 3,0 C
14.05.2004 06:15 2,9 C 3,9 C 91 % 1021 hPa 0,0 l/m 0,0 m/s (0 Bft) W 275 0,00 min 2,03 klux 1,6 C 2,9 C
14.05.2004 06:20 2,8 C 3,9 C 91 % 1021 hPa 0,0 l/m 0,0 m/s (0 Bft) W 275 0,00 min 2,31 klux 1,5 C 2,8 C
14.05.2004 06:25 2,8 C 3,9 C 91 % 1021 hPa 0,0 l/m 0,0 m/s (0 Bft) W 275 0,00 min 3,12 klux 1,5 C 2,8 C
14.05.2004 06:30 3,1 C 3,9 C 91 % 1021 hPa 0,0 l/m 0,0 m/s (0 Bft) W 275 0,00 min 3,54 klux 1,8 C 3,1 C
14.05.2004 06:35 3,3 C 3,9 C 91 % 1021 hPa 0,0 l/m 0,0 m/s (0 Bft) W 275 0,00 min 4,05 klux 2,0 C 3,3 C
14.05.2004 06:40 3,3 C 3,9 C 91 % 1021 hPa 0,0 l/m 0,0 m/s (0 Bft) W 275 0,00 min 4,64 klux 2,0 C 3,3 C
14.05.2004 06:45 3,7 C 3,9 C 91 % 1021 hPa 0,0 l/m 0,0 m/s (0 Bft) W 275 0,00 min 5,06 klux 2,4 C 3,7 C
14.05.2004 06:50 3,6 C 4,0 C 91 % 1021 hPa 0,0 l/m 0,0 m/s (0 Bft) W 275 0,00 min 5,77 klux 2,3 C 3,6 C
14.05.2004 06:55 4,0 C 4,1 C 90 % 1021 hPa 0,0 l/m 0,0 m/s (0 Bft) W 275 0,00 min 6,53 klux 2,5 C 4,0 C
14.05.2004 07:00 4,0 C 4,2 C 90 % 1021 hPa 0,0 l/m 0,0 m/s (0 Bft) W 275 0,00 min 7,00 klux 2,5 C 4,0 C
14.05.2004 07:05 3,9 C 4,2 C 91 % 1021 hPa 0,0 l/m 1,1 m/s (0 Bft) W-SW22.5 250 0,00 min 7,55 klux 2,6 C 3,9 C
14.05.2004 07:10 3,9 C 4,3 C 91 % 1021 hPa 0,0 l/m 1,2 m/s (1 Bft) W-SW 255 0,00 min 8,40 klux 2,6 C 3,9 C
14.05.2004 07:15 4,2 C 4,4 C 90 % 1021 hPa 0,0 l/m 0,9 m/s (0 Bft) W-SW 250 0,00 min 8,76 klux 2,7 C 4,2 C
14.05.2004 07:20 4,2 C 4,5 C 90 % 1021 hPa 0,0 l/m 0,0 m/s (0 Bft) W-SW 245 0,00 min 10,0 klux 2,7 C 4,2 C
14.05.2004 07:25 4,3 C 4,5 C 90 % 1021 hPa 0,0 l/m 0,0 m/s (0 Bft) W-SW 240 0,00 min 11,4 klux 2,8 C 4,3 C
14.05.2004 07:30 4,4 C 4,6 C 90 % 1021 hPa 0,0 l/m 0,9 m/s (0 Bft) W-SW 250 0,00 min 12,4 klux 2,9 C 4,4 C
14.05.2004 07:35 4,8 C 4,8 C 89 % 1021 hPa 0,0 l/m 0,9 m/s (0 Bft) W-SW 250 0,00 min 13,4 klux 3,1 C 4,8 C
14.05.2004 07:40 4,9 C 4,8 C 89 % 1021 hPa 0,0 l/m 0,0 m/s (0 Bft) W-SW 250 0,00 min 15,3 klux 3,2 C 4,9 C
14.05.2004 07:45 5,5 C 4,8 C 88 % 1021 hPa 0,0 l/m 0,0 m/s (0 Bft) W-SW 250 0,00 min 16,6 klux 3,7 C 5,5 C
14.05.2004 07:50 5,5 C 5,0 C 87 % 1021 hPa 0,0 l/m 0,1 m/s (0 Bft) W-SW22.5 255 0,00 min 17,0 klux 3,5 C 5,5 C
14.05.2004 07:55 6,0 C 5,1 C 86 % 1021 hPa 0,0 l/m 0,7 m/s (0 Bft) W-SW22.5 240 0,00 min 20,5 klux 3,8 C 6,0 C
14.05.2004 08:00 6,8 C 5,1 C 85 % 1021 hPa 0,0 l/m 0,0 m/s (0 Bft) SW 225 0,00 min 24,9 klux 4,5 C 6,8 C
14.05.2004 08:05 7,7 C 5,3 C 78 % 1021 hPa 0,0 l/m 0,1 m/s (0 Bft) W-SW22.5 255 5,00 min 29,7 klux 4,1 C 7,7 C
14.05.2004 08:10 8,6 C 5,5 C 74 % 1021 hPa 0,0 l/m 0,0 m/s (0 Bft) W-SW 255 5,00 min 36,6 klux 4,2 C 8,6 C
14.05.2004 08:15 8,4 C 5,8 C 73 % 1021 hPa 0,0 l/m 2,5 m/s (1 Bft) W-SW22.5 250 5,00 min 38,8 klux 3,8 C 6,5 C
14.05.2004 08:20 8,4 C 5,8 C 74 % 1021 hPa 0,0 l/m 2,3 m/s (1 Bft) W-SW22.5 250 5,00 min 38,3 klux 4,0 C 6,9 C
14.05.2004 08:25 8,2 C 6,2 C 75 % 1022 hPa 0,0 l/m 2,3 m/s (1 Bft) W-SW22.5 255 5,00 min 38,2 klux 4,0 C 6,9 C
14.05.2004 08:30 8,2 C 6,4 C 76 % 1022 hPa 0,0 l/m 1,8 m/s (1 Bft) SW22.5 235 5,00 min 38,1 klux 4,2 C 8,1 C
14.05.2004 08:35 8,1 C 6,6 C 78 % 1022 hPa 0,0 l/m 2,7 m/s (1 Bft) W-SW22.5 245 5,00 min 39,3 klux 4,5 C 5,6 C
14.05.2004 08:40 8,4 C 6,9 C 79 % 1022 hPa 0,0 l/m 2,3 m/s (1 Bft) W-SW45 240 5,00 min 40,4 klux 5,0 C 6,9 C
14.05.2004 08:45 8,7 C 7,1 C 79 % 1022 hPa 0,0 l/m 2,6 m/s (1 Bft) SW45 235 5,00 min 49,9 klux 5,3 C 6,7 C
14.05.2004 08:50 8,8 C 7,3 C 78 % 1022 hPa 0,0 l/m 2,1 m/s (1 Bft) SW22.5 235 5,00 min 48,7 klux 5,2 C 7,9 C
14.05.2004 08:55 9,5 C 7,6 C 78 % 1022 hPa 0,0 l/m 2,4 m/s (1 Bft) W-SW22.5 240 5,00 min 50,1 klux 5,9 C 8,0 C
14.05.2004 09:00 9,8 C 8,0 C 78 % 1022 hPa 0,0 l/m 2,6 m/s (1 Bft) SW45 230 5,00 min 50,2 klux 6,1 C 7,7 C
14.05.2004 09:05 9,9 C 8,3 C 77 % 1022 hPa 0,0 l/m 2,0 m/s (1 Bft) W-SW45 245 5,00 min 51,5 klux 6,1 C 9,3 C
14.05.2004 09:10 10,5 C 8,5 C 75 % 1022 hPa 0,0 l/m 2,7 m/s (1 Bft) SW22.5 235 5,00 min 55,0 klux 6,3 C 8,3 C
14.05.2004 09:15 11,0 C 8,8 C 74 % 1022 hPa 0,0 l/m 2,4 m/s (1 Bft) W-SW45 240 5,00 min 56,8 klux 6,5 C 9,4 C
14.05.2004 09:20 11,0 C 9,2 C 74 % 1022 hPa 0,0 l/m 2,0 m/s (1 Bft) SW45 230 5,00 min 55,8 klux 6,5 C 10,4 C
14.05.2004 09:25 11,7 C 9,4 C 72 % 1022 hPa 0,0 l/m 2,4 m/s (1 Bft) SW45 225 5,00 min 58,7 klux 6,8 C 10,2 C
14.05.2004 09:30 12,4 C 9,8 C 71 % 1022 hPa 0,0 l/m 2,1 m/s (1 Bft) W-SW45 240 5,00 min 63,6 klux 7,3 C 11,6 C
14.05.2004 09:35 12,6 C 10,3 C 69 % 1022 hPa 0,0 l/m 2,8 m/s (1 Bft) SW22.5 220 5,00 min 59,5 klux 7,1 C 10,5 C
14.05.2004 09:40 12,8 C 10,6 C 68 % 1022 hPa 0,0 l/m 2,1 m/s (1 Bft) SW45 230 5,00 min 54,2 klux 7,0 C 12,1 C
14.05.2004 09:45 13,4 C 10,9 C 66 % 1022 hPa 0,0 l/m 3,0 m/s (1 Bft) SW22.5 225 5,00 min 71,8 klux 7,2 C 10,9 C
14.05.2004 09:50 13,8 C 11,4 C 64 % 1022 hPa 0,0 l/m 2,3 m/s (1 Bft) SW22.5 220 5,00 min 76,2 klux 7,1 C 12,7 C
14.05.2004 09:55 14,2 C 12,0 C 63 % 1022 hPa 0,0 l/m 2,5 m/s (1 Bft) SW45 230 5,00 min 79,8 klux 7,3 C 12,7 C
14.05.2004 10:00 14,5 C 12,3 C 60 % 1022 hPa 0,0 l/m 2,5 m/s (1 Bft) S67.5 185 5,00 min 72,9 klux 6,8 C 13,0 C
14.05.2004 10:05 14,7 C 13,3 C 60 % 1022 hPa 0,0 l/m 2,9 m/s (1 Bft) SW45 235 5,00 min 73,6 klux 7,0 C 12,6 C
14.05.2004 10:10 14,4 C 13,9 C 60 % 1022 hPa 0,0 l/m 2,8 m/s (1 Bft) SW22.5 225 0,00 min 33,4 klux 6,7 C 12,4 C
14.05.2004 10:15 14,1 C 14,0 C 60 % 1022 hPa 0,0 l/m 1,3 m/s (1 Bft) SW22.5 230 0,00 min 27,5 klux 6,5 C 14,1 C
14.05.2004 10:20 13,9 C 14,0 C 59 % 1022 hPa 0,0 l/m 1,5 m/s (1 Bft) W22.5 275 0,00 min 24,8 klux 6,0 C 13,9 C
14.05.2004 10:25 13,8 C 14,0 C 60 % 1022 hPa 0,0 l/m 2,1 m/s (1 Bft) NW67.5 310 0,00 min 24,9 klux 6,2 C 13,1 C
14.05.2004 10:30 13,7 C 13,9 C 59 % 1022 hPa 0,0 l/m 1,6 m/s (1 Bft) W-NW22.5 285 0,00 min 28,5 klux 5,8 C 13,7 C
14.05.2004 10:35 13,7 C 13,9 C 59 % 1022 hPa 0,0 l/m 1,6 m/s (1 Bft) W-NW22.5 295 0,00 min 31,9 klux 5,8 C 13,7 C
14.05.2004 10:40 13,6 C 13,9 C 58 % 1022 hPa 0,0 l/m 1,6 m/s (1 Bft) W45 275 0,00 min 34,2 klux 5,5 C 13,6 C
14.05.2004 10:45 14,1 C 14,1 C 55 % 1022 hPa 0,0 l/m 1,7 m/s (1 Bft) W-SW22.5 250 0,00 min 41,0 klux 5,2 C 14,1 C
14.05.2004 10:50 14,7 C 14,2 C 55 % 1022 hPa 0,0 l/m 0,0 m/s (0 Bft) W-SW 255 0,00 min 47,0 klux 5,8 C 14,7 C
14.05.2004 10:55 15,1 C 14,7 C 53 % 1022 hPa 0,0 l/m 0,2 m/s (0 Bft) SO67.5 140 0,00 min 47,9 klux 5,6 C 15,1 C
14.05.2004 11:00 15,1 C 15,0 C 51 % 1022 hPa 0,0 l/m 1,2 m/s (1 Bft) W-SW67.5 240 0,00 min 51,0 klux 5,0 C 15,1 C
14.05.2004 11:05 15,2 C 15,0 C 53 % 1022 hPa 0,0 l/m 0,9 m/s (0 Bft) S-SW67.5 205 0,00 min 35,8 klux 5,7 C 15,2 C
14.05.2004 11:10 14,7 C 15,5 C 53 % 1022 hPa 0,0 l/m 0,1 m/s (0 Bft) S67.5 185 0,00 min 32,0 klux 5,2 C 14,7 C
14.05.2004 11:15 14,4 C 15,5 C 53 % 1022 hPa 0,0 l/m 1,2 m/s (1 Bft) W-SW22.5 240 0,00 min 22,7 klux 4,9 C 14,4 C
14.05.2004 11:20 14,4 C 15,2 C 52 % 1022 hPa 0,0 l/m 0,5 m/s (0 Bft) W22.5 270 0,00 min 20,0 klux 4,7 C 14,4 C
14.05.2004 11:25 14,0 C 15,1 C 55 % 1022 hPa 0,0 l/m 1,8 m/s (1 Bft) W22.5 280 0,00 min 19,6 klux 5,1 C 14,0 C
14.05.2004 11:30 13,9 C 14,9 C 54 % 1022 hPa 0,0 l/m 2,9 m/s (1 Bft) W-NW45 290 0,00 min 19,1 klux 4,7 C 11,7 C
14.05.2004 11:35 14,0 C 14,7 C 51 % 1022 hPa 0,0 l/m 1,9 m/s (1 Bft) W-NW45 285 0,00 min 20,0 klux 4,0 C 13,6 C
14.05.2004 11:40 14,0 C 14,6 C 55 % 1022 hPa 0,0 l/m 2,1 m/s (1 Bft) W-NW45 285 0,00 min 19,8 klux 5,1 C 13,3 C
14.05.2004 11:45 14,0 C 14,6 C 53 % 1022 hPa 0,0 l/m 0,7 m/s (0 Bft) W45 270 0,00 min 20,4 klux 4,6 C 14,0 C
14.05.2004 11:50 14,1 C 14,4 C 54 % 1022 hPa 0,0 l/m 1,0 m/s (0 Bft) W-NW45 295 0,00 min 21,5 klux 4,9 C 14,1 C
14.05.2004 11:55 14,2 C 14,4 C 53 % 1022 hPa 0,0 l/m 1,4 m/s (1 Bft) W 260 0,00 min 22,0 klux 4,8 C 14,2 C
14.05.2004 12:00 14,6 C 14,4 C 53 % 1022 hPa 0,0 l/m 0,8 m/s (0 Bft) W-SW 255 0,00 min 22,7 klux 5,1 C 14,6 C
14.05.2004 12:05 14,6 C 14,5 C 54 % 1022 hPa 0,0 l/m 0,0 m/s (0 Bft) W-SW 255 0,00 min 24,3 klux 5,4 C 14,6 C
14.05.2004 12:10 14,2 C 14,5 C 51 % 1022 hPa 0,0 l/m 0,0 m/s (0 Bft) W-SW 250 0,00 min 24,4 klux 4,2 C 14,2 C
14.05.2004 12:15 14,7 C 14,5 C 54 % 1022 hPa 0,0 l/m 0,0 m/s (0 Bft) W-SW 250 0,00 min 26,1 klux 5,5 C 14,7 C
14.05.2004 12:20 15,0 C 14,6 C 51 % 1022 hPa 0,0 l/m 0,3 m/s (0 Bft) SO 145 0,00 min 30,4 klux 4,9 C 15,0 C
14.05.2004 12:25 15,3 C 14,7 C 52 % 1022 hPa 0,0 l/m 0,1 m/s (0 Bft) S22.5 175 0,00 min 30,9 klux 5,5 C 15,3 C
14.05.2004 12:30 14,9 C 14,8 C 51 % 1022 hPa 0,0 l/m 0,1 m/s (0 Bft) SO22.5 135 0,00 min 32,4 klux 4,9 C 14,9 C
14.05.2004 12:35 15,1 C 14,9 C 51 % 1022 hPa 0,0 l/m 1,6 m/s (1 Bft) O-SO22.5 120 0,00 min 33,6 klux 5,0 C 15,1 C
14.05.2004 12:40 14,6 C 15,1 C 51 % 1022 hPa 0,0 l/m 2,7 m/s (1 Bft) SO45 135 0,00 min 27,2 klux 4,6 C 12,8 C
14.05.2004 12:45 14,8 C 15,2 C 51 % 1022 hPa 0,0 l/m 1,8 m/s (1 Bft) O-SO22.5 110 0,00 min 29,1 klux 4,8 C 14,8 C
14.05.2004 12:50 15,2 C 15,2 C 51 % 1022 hPa 0,0 l/m 1,1 m/s (1 Bft) SO22.5 135 0,00 min 27,5 klux 5,1 C 15,2 C
14.05.2004 12:55 15,5 C 15,2 C 50 % 1022 hPa 0,0 l/m 1,3 m/s (1 Bft) SO 145 0,00 min 29,5 klux 5,1 C 15,5 C
14.05.2004 13:00 15,9 C 15,2 C 50 % 1022 hPa 0,0 l/m 1,3 m/s (1 Bft) S45 170 0,00 min 37,5 klux 5,5 C 15,9 C
14.05.2004 13:05 15,9 C 15,3 C 53 % 1022 hPa 0,0 l/m 2,7 m/s (1 Bft) S-SW67.5 195 0,00 min 65,2 klux 6,3 C 14,2 C
14.05.2004 13:10 15,9 C 15,8 C 55 % 1022 hPa 0,0 l/m 3,1 m/s (1 Bft) S-SW45 205 0,00 min 53,7 klux 6,9 C 13,6 C
14.05.2004 13:15 16,4 C 16,2 C 51 % 1022 hPa 0,0 l/m 2,3 m/s (1 Bft) S-SW67.5 200 0,00 min 54,7 klux 6,2 C 15,4 C
14.05.2004 13:20 16,3 C 16,6 C 49 % 1022 hPa 0,0 l/m 2,3 m/s (1 Bft) S-SW67.5 200 0,00 min 59,6 klux 5,6 C 15,3 C
14.05.2004 13:25 17,0 C 16,7 C 48 % 1022 hPa 0,0 l/m 2,3 m/s (1 Bft) SO22.5 135 0,00 min 64,2 klux 5,9 C 16,0 C
14.05.2004 13:30 17,0 C 17,4 C 50 % 1022 hPa 0,0 l/m 2,4 m/s (1 Bft) S-SO67.5 165 5,00 min 78,3 klux 6,5 C 16,0 C
14.05.2004 13:35 16,5 C 17,6 C 51 % 1022 hPa 0,0 l/m 2,0 m/s (1 Bft) S67.5 170 0,00 min 38,3 klux 6,3 C 16,1 C
14.05.2004 13:40 16,0 C 17,5 C 51 % 1022 hPa 0,0 l/m 2,8 m/s (1 Bft) SO22.5 135 0,00 min 24,1 klux 5,9 C 14,2 C
14.05.2004 13:45 15,5 C 16,9 C 53 % 1022 hPa 0,0 l/m 1,2 m/s (1 Bft) S-SO22.5 150 0,00 min 18,3 klux 6,0 C 15,5 C
14.05.2004 13:50 14,9 C 16,6 C 54 % 1022 hPa 0,0 l/m 0,2 m/s (0 Bft) SO 130 0,00 min 17,1 klux 5,7 C 14,9 C
14.05.2004 13:55 15,3 C 16,5 C 54 % 1022 hPa 0,0 l/m 0,0 m/s (0 Bft) SO67.5 140 0,00 min 18,7 klux 6,0 C 15,3 C
14.05.2004 14:00 15,2 C 16,4 C 53 % 1022 hPa 0,0 l/m 0,3 m/s (0 Bft) SO 140 0,00 min 25,3 klux 5,7 C 15,2 C
14.05.2004 14:05 15,9 C 16,4 C 54 % 1022 hPa 0,0 l/m 0,1 m/s (0 Bft) SO 140 0,00 min 34,4 klux 6,6 C 15,9 C
14.05.2004 14:10 16,2 C 16,5 C 50 % 1022 hPa 0,0 l/m 0,2 m/s (0 Bft) S-SO45 160 0,00 min 38,3 klux 5,8 C 16,2 C
14.05.2004 14:15 16,4 C 16,6 C 50 % 1022 hPa 0,0 l/m 0,0 m/s (0 Bft) S45 185 0,00 min 41,3 klux 6,0 C 16,4 C
14.05.2004 14:20 16,6 C 16,9 C 51 % 1022 hPa 0,0 l/m 2,5 m/s (1 Bft) SO22.5 135 0,00 min 49,7 klux 6,4 C 15,4 C
14.05.2004 14:25 16,9 C 17,0 C 50 % 1022 hPa 0,0 l/m 1,8 m/s (1 Bft) SO22.5 140 0,00 min 43,7 klux 6,4 C 16,9 C
14.05.2004 14:30 16,9 C 17,0 C 50 % 1022 hPa 0,0 l/m 2,0 m/s (1 Bft) S67.5 180 0,00 min 51,3 klux 6,4 C 16,4 C
14.05.2004 14:35 17,0 C 17,9 C 48 % 1022 hPa 0,0 l/m 2,9 m/s (1 Bft) SO45 135 5,00 min 73,8 klux 5,9 C 15,1 C
14.05.2004 14:40 17,0 C 18,3 C 47 % 1022 hPa 0,0 l/m 1,8 m/s (1 Bft) S67.5 170 0,00 min 61,6 klux 5,6 C 17,0 C
14.05.2004 14:45 17,2 C 18,4 C 47 % 1022 hPa 0,0 l/m 1,9 m/s (1 Bft) S-SW45 210 0,00 min 50,9 klux 5,8 C 17,1 C
14.05.2004 14:50 16,7 C 18,6 C 45 % 1022 hPa 0,0 l/m 3,7 m/s (1 Bft) SW45 235 0,00 min 47,1 klux 4,7 C 13,8 C
14.05.2004 14:55 16,8 C 18,4 C 45 % 1022 hPa 0,0 l/m 2,8 m/s (1 Bft) SW22.5 230 0,00 min 39,1 klux 4,8 C 15,1 C
14.05.2004 15:00 15,8 C 18,4 C 46 % 1022 hPa 0,0 l/m 2,9 m/s (1 Bft) W-SW45 240 0,00 min 28,3 klux 4,2 C 13,9 C
14.05.2004 15:05 15,9 C 18,2 C 46 % 1022 hPa 0,0 l/m 1,5 m/s (1 Bft) SW45 215 0,00 min 25,0 klux 4,3 C 15,9 C
14.05.2004 15:10 15,8 C 17,9 C 48 % 1022 hPa 0,0 l/m 2,1 m/s (1 Bft) SW45 225 0,00 min 19,5 klux 4,8 C 15,1 C
14.05.2004 15:15 15,6 C 17,6 C 46 % 1022 hPa 0,0 l/m 3,1 m/s (1 Bft) SW45 235 0,00 min 16,8 klux 4,0 C 13,3 C
14.05.2004 15:20 15,5 C 17,4 C 46 % 1022 hPa 0,0 l/m 3,0 m/s (1 Bft) W-SW22.5 245 0,00 min 14,7 klux 3,9 C 13,3 C
14.05.2004 15:25 15,7 C 17,2 C 47 % 1022 hPa 0,0 l/m 2,4 m/s (1 Bft) W-SW45 245 0,00 min 17,3 klux 4,4 C 14,4 C
14.05.2004 15:30 15,9 C 17,2 C 46 % 1022 hPa 0,0 l/m 1,3 m/s (1 Bft) SW22.5 235 0,00 min 20,9 klux 4,3 C 15,9 C
14.05.2004 15:35 16,0 C 17,1 C 44 % 1022 hPa 0,0 l/m 2,8 m/s (1 Bft) W22.5 270 0,00 min 24,2 klux 3,8 C 14,2 C
14.05.2004 15:40 16,1 C 17,1 C 43 % 1022 hPa 0,0 l/m 3,9 m/s (1 Bft) W45 270 0,00 min 24,8 klux 3,5 C 12,8 C
14.05.2004 15:45 16,3 C 17,1 C 41 % 1022 hPa 0,0 l/m 4,9 m/s (1 Bft) W22.5 270 0,00 min 37,5 klux 3,0 C 12,0 C
14.05.2004 15:50 16,8 C 17,3 C 42 % 1022 hPa 0,0 l/m 3,8 m/s (1 Bft) W-NW45 295 0,00 min 39,6 klux 3,8 C 13,8 C
14.05.2004 15:55 17,0 C 17,5 C 40 % 1022 hPa 0,0 l/m 3,4 m/s (1 Bft) W-NW45 285 0,00 min 49,8 klux 3,3 C 14,5 C
14.05.2004 16:00 17,4 C 18,0 C 45 % 1022 hPa 0,0 l/m 4,0 m/s (1 Bft) W-SW22.5 250 0,00 min 54,5 klux 5,3 C 14,3 C
14.05.2004 16:05 17,3 C 18,4 C 42 % 1022 hPa 0,0 l/m 1,6 m/s (1 Bft) W45 270 0,00 min 44,7 klux 4,3 C 17,3 C
14.05.2004 16:10 17,3 C 18,6 C 43 % 1022 hPa 0,0 l/m 2,2 m/s (1 Bft) O-SO22.5 120 0,00 min 42,1 klux 4,6 C 16,6 C
14.05.2004 16:15 17,0 C 18,8 C 43 % 1022 hPa 0,0 l/m 1,0 m/s (0 Bft) S-SO22.5 155 0,00 min 32,0 klux 4,3 C 17,0 C
14.05.2004 16:20 16,4 C 18,8 C 43 % 1022 hPa 0,0 l/m 0,4 m/s (0 Bft) S-SO22.5 155 0,00 min 30,2 klux 3,8 C 16,4 C
14.05.2004 16:25 16,3 C 18,6 C 43 % 1022 hPa 0,0 l/m 3,0 m/s (1 Bft) O22.5 100 0,00 min 24,1 klux 3,7 C 14,3 C
14.05.2004 16:30 15,8 C 18,5 C 47 % 1022 hPa 0,0 l/m 2,1 m/s (1 Bft) O22.5 85 0,00 min 22,1 klux 4,5 C 15,2 C
14.05.2004 16:35 16,1 C 18,4 C 44 % 1022 hPa 0,0 l/m 2,4 m/s (1 Bft) O 90 0,00 min 21,3 klux 3,8 C 14,9 C
14.05.2004 16:40 16,2 C 18,2 C 43 % 1022 hPa 0,0 l/m 3,4 m/s (1 Bft) N-NW 340 0,00 min 27,9 klux 3,6 C 13,5 C
14.05.2004 16:45 16,1 C 18,3 C 43 % 1022 hPa 0,0 l/m 1,6 m/s (1 Bft) O22.5 100 0,00 min 29,6 klux 3,5 C 16,1 C
14.05.2004 16:50 16,6 C 18,8 C 44 % 1022 hPa 0,0 l/m 1,4 m/s (1 Bft) O22.5 100 5,00 min 52,0 klux 4,3 C 16,6 C
14.05.2004 16:55 16,8 C 19,4 C 45 % 1022 hPa 0,0 l/m 0,0 m/s (0 Bft) O 85 0,00 min 40,8 klux 4,8 C 16,8 C
14.05.2004 17:00 17,1 C 19,6 C 44 % 1022 hPa 0,0 l/m 3,8 m/s (1 Bft) N67.5 5 0,00 min 38,8 klux 4,8 C 14,1 C
14.05.2004 17:05 17,0 C 19,7 C 40 % 1022 hPa 0,0 l/m 4,8 m/s (1 Bft) W-NW45 290 0,00 min 36,5 klux 3,3 C 13,0 C
14.05.2004 17:10 16,7 C 19,5 C 42 % 1022 hPa 0,0 l/m 5,0 m/s (1 Bft) W-NW45 290 0,00 min 23,8 klux 3,7 C 12,4 C
14.05.2004 17:15 16,7 C 19,1 C 42 % 1022 hPa 0,0 l/m 2,9 m/s (1 Bft) W45 270 0,00 min 24,2 klux 3,7 C 14,8 C
14.05.2004 17:20 16,5 C 18,8 C 44 % 1022 hPa 0,0 l/m 3,8 m/s (1 Bft) W45 275 0,00 min 21,8 klux 4,2 C 13,5 C
14.05.2004 17:25 16,4 C 18,5 C 42 % 1022 hPa 0,0 l/m 4,3 m/s (1 Bft) W-NW67.5 295 0,00 min 35,9 klux 3,5 C 12,7 C
14.05.2004 17:30 16,7 C 18,6 C 43 % 1022 hPa 0,0 l/m 4,7 m/s (1 Bft) W67.5 280 0,00 min 35,9 klux 4,1 C 12,7 C
14.05.2004 17:35 16,8 C 18,6 C 43 % 1022 hPa 0,0 l/m 4,8 m/s (1 Bft) NW45 305 0,00 min 34,0 klux 4,2 C 12,7 C
14.05.2004 17:40 16,7 C 18,4 C 43 % 1022 hPa 0,0 l/m 4,4 m/s (1 Bft) NW67.5 315 0,00 min 26,4 klux 4,1 C 13,0 C
14.05.2004 17:45 16,5 C 18,1 C 44 % 1022 hPa 0,0 l/m 6,3 m/s (2 Bft) W-NW45 295 0,00 min 23,4 klux 4,2 C 11,1 C
14.05.2004 17:50 16,4 C 18,4 C 43 % 1022 hPa 0,0 l/m 3,3 m/s (1 Bft) NW67.5 320 5,00 min 38,3 klux 3,8 C 13,9 C
14.05.2004 17:55 16,8 C 18,7 C 43 % 1022 hPa 0,0 l/m 5,3 m/s (1 Bft) NW45 305 5,00 min 46,2 klux 4,2 C 12,3 C
14.05.2004 18:00 16,7 C 18,6 C 42 % 1022 hPa 0,0 l/m 6,0 m/s (2 Bft) NW67.5 305 5,00 min 39,6 klux 3,7 C 11,6 C
14.05.2004 18:05 16,7 C 18,8 C 42 % 1022 hPa 0,0 l/m 5,6 m/s (1 Bft) W-NW22.5 295 5,00 min 43,6 klux 3,7 C 11,9 C
14.05.2004 18:10 16,8 C 19,1 C 43 % 1022 hPa 0,0 l/m 4,1 m/s (1 Bft) W-NW22.5 290 5,00 min 52,7 klux 4,2 C 13,5 C
14.05.2004 18:15 16,7 C 19,8 C 42 % 1022 hPa 0,0 l/m 5,2 m/s (1 Bft) W-NW67.5 295 5,00 min 52,1 klux 3,7 C 12,3 C
14.05.2004 18:20 16,7 C 20,3 C 42 % 1022 hPa 0,0 l/m 3,6 m/s (1 Bft) NW67.5 305 5,00 min 50,7 klux 3,7 C 13,9 C
14.05.2004 18:25 16,7 C 20,7 C 41 % 1022 hPa 0,0 l/m 6,5 m/s (2 Bft) W-NW67.5 295 5,00 min 48,9 klux 3,4 C 11,2 C
14.05.2004 18:30 16,3 C 20,1 C 42 % 1022 hPa 0,0 l/m 6,0 m/s (2 Bft) W-NW45 295 0,00 min 28,0 klux 3,4 C 11,1 C
14.05.2004 18:35 16,4 C 19,8 C 42 % 1022 hPa 0,0 l/m 5,4 m/s (1 Bft) W-NW45 285 5,00 min 41,4 klux 3,5 C 11,7 C
14.05.2004 18:40 16,8 C 20,1 C 42 % 1022 hPa 0,0 l/m 3,7 m/s (1 Bft) W-NW45 295 5,00 min 45,9 klux 3,8 C 13,9 C
14.05.2004 18:45 16,7 C 20,2 C 41 % 1022 hPa 0,0 l/m 3,6 m/s (1 Bft) W67.5 280 5,00 min 30,8 klux 3,4 C 14,0 C
14.05.2004 18:50 16,6 C 19,7 C 40 % 1022 hPa 0,0 l/m 3,5 m/s (1 Bft) W45 275 5,00 min 32,0 klux 2,9 C 13,9 C
14.05.2004 18:55 17,4 C 19,7 C 40 % 1022 hPa 0,0 l/m 3,4 m/s (1 Bft) W22.5 275 5,00 min 40,9 klux 3,7 C 14,9 C
14.05.2004 19:00 17,5 C 19,8 C 40 % 1022 hPa 0,0 l/m 3,4 m/s (1 Bft) W45 270 5,00 min 35,7 klux 3,8 C 15,0 C
14.05.2004 19:05 17,7 C 20,0 C 38 % 1023 hPa 0,0 l/m 4,2 m/s (1 Bft) W22.5 270 5,00 min 34,9 klux 3,2 C 14,5 C
14.05.2004 19:10 17,7 C 20,0 C 38 % 1022 hPa 0,0 l/m 4,7 m/s (1 Bft) W45 280 5,00 min 32,7 klux 3,2 C 13,9 C
14.05.2004 19:15 17,6 C 20,1 C 39 % 1023 hPa 0,0 l/m 4,2 m/s (1 Bft) W45 280 5,00 min 29,3 klux 3,5 C 14,3 C
14.05.2004 19:20 17,6 C 20,1 C 39 % 1023 hPa 0,0 l/m 2,9 m/s (1 Bft) W22.5 265 5,00 min 27,3 klux 3,5 C 15,9 C
14.05.2004 19:25 18,1 C 19,9 C 39 % 1022 hPa 0,0 l/m 2,4 m/s (1 Bft) W-NW22.5 300 5,00 min 25,0 klux 3,9 C 17,1 C
14.05.2004 19:30 17,3 C 19,8 C 39 % 1023 hPa 0,0 l/m 1,3 m/s (1 Bft) W-NW67.5 290 5,00 min 23,0 klux 3,2 C 17,3 C
14.05.2004 19:35 17,9 C 19,6 C 39 % 1023 hPa 0,0 l/m 3,1 m/s (1 Bft) NW45 305 5,00 min 21,9 klux 3,8 C 15,8 C
14.05.2004 19:40 18,3 C 19,4 C 39 % 1023 hPa 0,0 l/m 2,9 m/s (1 Bft) W-NW67.5 295 5,00 min 20,9 klux 4,1 C 16,6 C
14.05.2004 19:45 18,1 C 19,2 C 39 % 1023 hPa 0,0 l/m 1,5 m/s (1 Bft) W-NW22.5 290 5,00 min 19,4 klux 3,9 C 18,1 C
14.05.2004 19:50 17,8 C 19,1 C 39 % 1023 hPa 0,0 l/m 3,0 m/s (1 Bft) W-NW22.5 290 5,00 min 16,7 klux 3,7 C 15,9 C
14.05.2004 19:55 18,0 C 18,9 C 39 % 1023 hPa 0,0 l/m 0,2 m/s (0 Bft) W22.5 280 5,00 min 16,3 klux 3,8 C 18,0 C
14.05.2004 20:00 17,7 C 18,5 C 39 % 1023 hPa 0,0 l/m 3,1 m/s (1 Bft) W-NW22.5 290 5,00 min 14,8 klux 3,6 C 15,7 C
14.05.2004 20:05 17,7 C 18,1 C 41 % 1023 hPa 0,0 l/m 0,7 m/s (0 Bft) W 280 5,00 min 12,8 klux 4,3 C 17,7 C
14.05.2004 20:10 17,2 C 18,0 C 41 % 1023 hPa 0,0 l/m 0,3 m/s (0 Bft) W22.5 280 5,00 min 11,2 klux 3,8 C 17,2 C
14.05.2004 20:15 17,0 C 17,5 C 41 % 1023 hPa 0,0 l/m 0,0 m/s (0 Bft) W 280 5,00 min 9,8 klux 3,7 C 17,0 C
14.05.2004 20:20 16,0 C 17,0 C 43 % 1023 hPa 0,0 l/m 2,4 m/s (1 Bft) W-NW45 300 5,00 min 9,3 klux 3,4 C 14,9 C
14.05.2004 20:25 14,5 C 16,8 C 47 % 1023 hPa 0,0 l/m 0,9 m/s (0 Bft) W-NW22.5 290 0,00 min 6,65 klux 3,3 C 14,5 C
14.05.2004 20:30 14,0 C 16,1 C 48 % 1023 hPa 0,0 l/m 1,0 m/s (0 Bft) W-NW22.5 285 0,00 min 5,12 klux 3,2 C 14,0 C
14.05.2004 20:35 13,2 C 15,5 C 51 % 1023 hPa 0,0 l/m 0,2 m/s (0 Bft) W-NW 285 0,00 min 3,23 klux 3,3 C 13,2 C
14.05.2004 20:40 12,8 C 15,0 C 54 % 1023 hPa 0,0 l/m 0,2 m/s (0 Bft) W-NW22.5 295 0,00 min 2,12 klux 3,7 C 12,8 C
14.05.2004 20:45 12,6 C 15,0 C 55 % 1023 hPa 0,0 l/m 1,9 m/s (1 Bft) NW22.5 310 0,00 min 2,01 klux 3,8 C 12,3 C
14.05.2004 20:50 12,6 C 14,4 C 55 % 1023 hPa 0,0 l/m 1,0 m/s (0 Bft) W-NW 290 0,00 min 1,56 klux 3,8 C 12,6 C
14.05.2004 20:55 12,1 C 14,0 C 56 % 1023 hPa 0,0 l/m 1,4 m/s (1 Bft) W-NW45 300 5,00 min 1,20 klux 3,6 C 12,1 C
14.05.2004 21:00 12,0 C 13,9 C 56 % 1023 hPa 0,0 l/m 1,2 m/s (1 Bft) W-NW67.5 300 0,00 min 882 lux 3,5 C 12,0 C
14.05.2004 21:05 11,8 C 13,7 C 57 % 1023 hPa 0,0 l/m 1,8 m/s (1 Bft) W-NW22.5 295 0,00 min 595 lux 3,6 C 11,8 C
14.05.2004 21:10 11,5 C 13,2 C 58 % 1024 hPa 0,0 l/m 0,2 m/s (0 Bft) W-NW22.5 295 0,00 min 376 lux 3,5 C 11,5 C
14.05.2004 21:15 11,2 C 13,1 C 60 % 1024 hPa 0,0 l/m 0,0 m/s (0 Bft) W-NW22.5 300 0,00 min 295 lux 3,7 C 11,2 C
14.05.2004 21:20 11,1 C 12,7 C 61 % 1024 hPa 0,0 l/m 0,0 m/s (0 Bft) W-NW 290 0,00 min 177 lux 3,9 C 11,1 C
14.05.2004 21:25 10,3 C 12,5 C 62 % 1024 hPa 0,0 l/m 0,0 m/s (0 Bft) W-NW 295 0,00 min 104 lux 3,3 C 10,3 C
14.05.2004 21:30 10,3 C 12,1 C 65 % 1024 hPa 0,0 l/m 0,0 m/s (0 Bft) W-NW 295 0,00 min 56 lux 4,0 C 10,3 C
14.05.2004 21:35 10,1 C 11,9 C 66 % 1024 hPa 0,0 l/m 0,0 m/s (0 Bft) W-NW 295 0,00 min 31 lux 4,0 C 10,1 C
14.05.2004 21:40 9,9 C 11,7 C 66 % 1024 hPa 0,0 l/m 0,0 m/s (0 Bft) NW67.5 320 0,00 min 19 lux 3,9 C 9,9 C
14.05.2004 21:45 9,9 C 11,4 C 68 % 1024 hPa 0,0 l/m 0,0 m/s (0 Bft) NO 45 0,00 min 13 lux 4,3 C 9,9 C
14.05.2004 21:50 9,7 C 11,3 C 68 % 1024 hPa 0,0 l/m 0,0 m/s (0 Bft) NO 45 0,00 min 8 lux 4,1 C 9,7 C
14.05.2004 21:55 9,4 C 11,1 C 68 % 1024 hPa 0,0 l/m 0,0 m/s (0 Bft) NO 45 0,00 min 5 lux 3,8 C 9,4 C
14.05.2004 22:00 9,4 C 10,9 C 70 % 1024 hPa 0,0 l/m 0,0 m/s (0 Bft) NO 45 0,00 min 2 lux 4,2 C 9,4 C
14.05.2004 22:05 9,0 C 10,8 C 71 % 1024 hPa 0,0 l/m 0,0 m/s (0 Bft) NO 45 0,00 min 0 lux 4,0 C 9,0 C
14.05.2004 22:10 9,0 C 10,6 C 72 % 1024 hPa 0,0 l/m 0,0 m/s (0 Bft) NO 45 0,00 min 0 lux 4,2 C 9,0 C
14.05.2004 22:15 8,7 C 10,4 C 73 % 1025 hPa 0,0 l/m 0,0 m/s (0 Bft) NO 45 0,00 min 0 lux 4,1 C 8,7 C
14.05.2004 22:20 8,3 C 10,1 C 75 % 1025 hPa 0,0 l/m 0,0 m/s (0 Bft) NO 45 0,00 min 0 lux 4,1 C 8,3 C
14.05.2004 22:25 8,3 C 10,0 C 76 % 1025 hPa 0,0 l/m 0,0 m/s (0 Bft) NO 45 0,00 min 0 lux 4,3 C 8,3 C
14.05.2004 22:30 8,0 C 9,8 C 76 % 1025 hPa 0,0 l/m 0,0 m/s (0 Bft) NO 45 0,00 min 0 lux 4,0 C 8,0 C
14.05.2004 22:35 7,8 C 9,6 C 78 % 1025 hPa 0,0 l/m 0,0 m/s (0 Bft) NO 45 0,00 min 0 lux 4,2 C 7,8 C
14.05.2004 22:40 7,7 C 9,5 C 79 % 1025 hPa 0,0 l/m 0,0 m/s (0 Bft) NO 45 0,00 min 0 lux 4,3 C 7,7 C
14.05.2004 22:45 7,6 C 9,3 C 79 % 1025 hPa 0,0 l/m 0,0 m/s (0 Bft) NO 45 0,00 min 0 lux 4,2 C 7,6 C
14.05.2004 22:50 7,4 C 9,1 C 80 % 1025 hPa 0,0 l/m 0,0 m/s (0 Bft) NO 45 0,00 min 0 lux 4,2 C 7,4 C
14.05.2004 22:55 7,3 C 8,9 C 80 % 1025 hPa 0,0 l/m 0,0 m/s (0 Bft) NO 45 0,00 min 0 lux 4,1 C 7,3 C
14.05.2004 23:00 7,3 C 8,8 C 80 % 1025 hPa 0,0 l/m 0,0 m/s (0 Bft) NO 45 0,00 min 0 lux 4,1 C 7,3 C
14.05.2004 23:05 7,0 C 8,7 C 80 % 1025 hPa 0,0 l/m 0,0 m/s (0 Bft) NO 45 0,00 min 0 lux 3,8 C 7,0 C
14.05.2004 23:10 7,0 C 8,5 C 80 % 1025 hPa 0,0 l/m 0,0 m/s (0 Bft) NO 45 0,00 min 0 lux 3,8 C 7,0 C
14.05.2004 23:15 6,9 C 8,4 C 82 % 1025 hPa 0,0 l/m 0,0 m/s (0 Bft) NO 45 0,00 min 0 lux 4,0 C 6,9 C
14.05.2004 23:20 6,7 C 8,3 C 82 % 1025 hPa 0,0 l/m 0,0 m/s (0 Bft) NO 45 0,00 min 0 lux 3,8 C 6,7 C
14.05.2004 23:25 6,8 C 8,2 C 83 % 1025 hPa 0,0 l/m 0,0 m/s (0 Bft) NO 45 0,00 min 0 lux 4,1 C 6,8 C
14.05.2004 23:30 6,5 C 8,1 C 83 % 1025 hPa 0,0 l/m 0,0 m/s (0 Bft) NO 45 0,00 min 0 lux 3,8 C 6,5 C
14.05.2004 23:35 6,3 C 8,0 C 83 % 1025 hPa 0,0 l/m 0,0 m/s (0 Bft) NO 45 0,00 min 0 lux 3,6 C 6,3 C
14.05.2004 23:40 6,2 C 7,8 C 83 % 1025 hPa 0,0 l/m 0,0 m/s (0 Bft) NO 45 0,00 min 0 lux 3,5 C 6,2 C
14.05.2004 23:45 6,1 C 7,7 C 83 % 1025 hPa 0,0 l/m 0,0 m/s (0 Bft) NO 45 0,00 min 0 lux 3,4 C 6,1 C
14.05.2004 23:50 6,1 C 7,6 C 84 % 1025 hPa 0,0 l/m 0,0 m/s (0 Bft) NO 45 0,00 min 0 lux 3,6 C 6,1 C
14.05.2004 23:55 5,9 C 7,5 C 85 % 1025 hPa 0,0 l/m 0,0 m/s (0 Bft) NO 45 0,00 min 0 lux 3,6 C 5,9 C
_ Min-Zeit 05:20 05:15 19:05 00:00 - 00:15 - - - - 05:20 05:20
Minimum _ 2,6 C 3,9 C 38 % 1020 hPa - 0,0 m/s (0 Bft) - - - - 1,4 C 2,6 C
_ Max-Zeit 19:40 18:25 04:10 22:15 00:00 18:25 - - 08:05 09:55 09:30 19:45
Maximum _ 18,3 C 20,7 C 92 % 1025 hPa 0,0 l/m 6,5 m/s
W-NW (4 Bft)
- - 5,00 min 79,8 klux 7,3 C 18,1 C
Durchschnitt _ 10,6 C 11,5 C 67 % 1022 hPa #0,0 l/m 1,3 m/s (1 Bft) W-NW - #4:55 h 19,6 klux 4,0 C 9,9 C